Time,TemperatureF,DewpointF,PressureIn,WindDirection,WindDirectionDegrees,WindSpeedMPH,WindSpeedGustMPH,Humidity,HourlyPrecipIn,Conditions,Clouds,dailyrainin,SoftwareType,DateUTC
2013-06-19 00:02:00,75.2,69.5,29.95,North,0,0.0,0.0,82,0.00,,,0.00,WUHU216HW,2013-06-19 05:02:00,
2013-06-19 00:07:00,75.2,69.5,29.95,North,0,0.0,0.0,82,0.00,,,0.00,WUHU216HW,2013-06-19 05:07:00,
2013-06-19 00:12:00,75.2,69.5,29.95,North,0,0.0,0.0,82,0.00,,,0.00,WUHU216HW,2013-06-19 05:12:00,
2013-06-19 00:17:00,75.1,69.3,29.95,North,0,0.0,0.0,82,0.00,,,0.00,WUHU216HW,2013-06-19 05:17:00,
2013-06-19 00:22:00,75.1,69.6,29.94,North,0,0.0,0.0,83,0.00,,,0.00,WUHU216HW,2013-06-19 05:22:00,
2013-06-19 00:27:00,75.1,69.3,29.95,North,0,0.0,0.0,82,0.00,,,0.00,WUHU216HW,2013-06-19 05:27:00,
2013-06-19 00:32:00,75.1,69.3,29.95,North,0,0.0,0.0,82,0.00,,,0.00,WUHU216HW,2013-06-19 05:32:00,
2013-06-19 00:37:00,74.9,69.4,29.95,North,0,0.0,0.0,83,0.00,,,0.00,WUHU216HW,2013-06-19 05:37:00,
2013-06-19 00:42:00,74.9,69.4,29.94,North,0,0.0,0.0,83,0.00,,,0.00,WUHU216HW,2013-06-19 05:42:00,
2013-06-19 00:47:00,74.7,69.2,29.94,North,0,0.0,0.0,83,0.00,,,0.00,WUHU216HW,2013-06-19 05:47:00,
2013-06-19 00:52:00,74.7,69.2,29.95,North,0,0.0,0.0,83,0.00,,,0.00,WUHU216HW,2013-06-19 05:52:00,
2013-06-19 00:57:00,74.5,69.0,29.94,North,0,0.0,0.0,83,0.00,,,0.00,WUHU216HW,2013-06-19 05:57:00,
2013-06-19 01:02:00,74.5,69.0,29.94,North,0,0.0,0.0,83,0.00,,,0.00,WUHU216HW,2013-06-19 06:02:00,
2013-06-19 01:07:00,74.5,69.0,29.94,North,0,0.0,0.0,83,0.00,,,0.00,WUHU216HW,2013-06-19 06:07:00,
2013-06-19 01:12:00,74.3,68.9,29.94,North,0,0.0,0.0,83,0.00,,,0.00,WUHU216HW,2013-06-19 06:12:00,
2013-06-19 01:17:00,74.3,68.9,29.94,North,0,0.0,0.0,83,0.00,,,0.00,WUHU216HW,2013-06-19 06:17:00,
2013-06-19 01:37:00,74.0,68.5,29.93,North,0,0.0,0.0,83,0.00,,,0.00,WUHU216HW,2013-06-19 06:37:00,
2013-06-19 01:42:00,74.0,68.5,29.93,North,0,0.0,0.0,83,0.00,,,0.00,WUHU216HW,2013-06-19 06:42:00,
2013-06-19 02:00:00,73.6,68.5,29.93,North,0,0.0,0.0,84,0.00,,,0.00,WUHU216HW,2013-06-19 07:00:00,
2013-06-19 02:05:00,73.6,68.5,29.93,North,0,0.0,0.0,84,0.00,,,0.00,WUHU216HW,2013-06-19 07:05:00,
2013-06-19 02:30:00,73.4,68.7,29.93,North,0,0.0,0.0,85,0.00,,,0.00,WUHU216HW,2013-06-19 07:30:00,
2013-06-19 02:35:00,73.4,68.7,29.93,North,0,0.0,0.0,85,0.00,,,0.00,WUHU216HW,2013-06-19 07:35:00,
2013-06-19 03:00:00,73.1,68.7,29.92,North,0,0.0,0.0,86,0.00,,,0.00,WUHU216HW,2013-06-19 08:00:00,
2013-06-19 03:05:00,73.1,68.7,29.92,North,0,0.0,0.0,86,0.00,,,0.00,WUHU216HW,2013-06-19 08:05:00,
2013-06-19 03:30:00,72.9,68.9,29.93,North,0,0.0,0.0,87,0.00,,,0.00,WUHU216HW,2013-06-19 08:30:00,
2013-06-19 03:35:00,72.9,68.9,29.93,North,0,0.0,0.0,87,0.00,,,0.00,WUHU216HW,2013-06-19 08:35:00,
2013-06-19 04:00:00,72.7,68.9,29.93,North,0,0.0,0.0,88,0.00,,,0.00,WUHU216HW,2013-06-19 09:00:00,
2013-06-19 04:05:00,72.7,68.9,29.93,North,0,0.0,0.0,88,0.00,,,0.00,WUHU216HW,2013-06-19 09:05:00,
2013-06-19 04:30:00,72.7,68.9,29.93,North,0,0.0,0.0,88,0.00,,,0.00,WUHU216HW,2013-06-19 09:30:00,
2013-06-19 04:35:00,72.7,68.9,29.93,North,0,0.0,0.0,88,0.00,,,0.00,WUHU216HW,2013-06-19 09:35:00,
2013-06-19 05:00:00,72.2,68.4,29.93,North,0,0.0,0.0,88,0.00,,,0.00,WUHU216HW,2013-06-19 10:00:00,
2013-06-19 05:05:00,72.2,68.4,29.93,North,0,0.0,0.0,88,0.00,,,0.00,WUHU216HW,2013-06-19 10:05:00,
2013-06-19 05:30:00,72.0,68.2,29.93,North,0,0.0,0.0,88,0.00,,,0.00,WUHU216HW,2013-06-19 10:30:00,
2013-06-19 05:35:00,72.0,68.2,29.93,North,0,0.0,0.0,88,0.00,,,0.00,WUHU216HW,2013-06-19 10:35:00,
2013-06-19 06:00:00,72.0,68.2,29.94,North,0,0.0,0.0,88,0.00,,,0.00,WUHU216HW,2013-06-19 11:00:00,
2013-06-19 06:05:00,72.0,68.2,29.94,North,0,0.0,0.0,88,0.00,,,0.00,WUHU216HW,2013-06-19 11:05:00,
2013-06-19 06:30:00,71.8,68.4,29.95,North,0,0.0,0.0,89,0.00,,,0.00,WUHU216HW,2013-06-19 11:30:00,
2013-06-19 06:35:00,71.8,68.4,29.95,North,0,0.0,0.0,89,0.00,,,0.00,WUHU216HW,2013-06-19 11:35:00,
2013-06-19 08:30:00,74.7,70.7,29.96,North,0,0.0,0.0,87,0.00,,,0.00,WUHU216HW,2013-06-19 13:30:00,
2013-06-19 08:35:00,74.5,70.5,29.96,North,0,0.0,0.0,87,0.00,,,0.00,WUHU216HW,2013-06-19 13:35:00,
2013-06-19 09:00:00,76.0,71.2,29.96,North,0,0.0,0.0,85,0.00,,,0.00,WUHU216HW,2013-06-19 14:00:00,
2013-06-19 09:05:00,76.0,71.2,29.96,North,0,0.0,0.0,85,0.00,,,0.00,WUHU216HW,2013-06-19 14:05:00,
2013-06-19 09:30:00,77.4,72.2,29.97,North,0,0.0,0.0,84,0.00,,,0.00,WUHU216HW,2013-06-19 14:30:00,
2013-06-19 09:35:00,77.4,72.2,29.97,North,0,0.0,0.0,84,0.00,,,0.00,WUHU216HW,2013-06-19 14:35:00,
2013-06-19 10:00:00,78.8,72.9,29.97,North,0,0.0,0.0,82,0.00,,,0.00,WUHU216HW,2013-06-19 15:00:00,
2013-06-19 10:05:00,78.8,72.9,29.97,North,0,0.0,0.0,82,0.00,,,0.00,WUHU216HW,2013-06-19 15:05:00,
2013-06-19 10:30:00,80.5,74.2,29.96,North,0,0.0,0.0,81,0.00,,,0.00,WUHU216HW,2013-06-19 15:30:00,
2013-06-19 10:35:00,80.5,74.2,29.96,North,0,0.0,0.0,81,0.00,,,0.00,WUHU216HW,2013-06-19 15:35:00,
2013-06-19 11:00:00,81.7,74.6,29.96,North,0,0.0,0.0,79,0.00,,,0.00,WUHU216HW,2013-06-19 16:00:00,
2013-06-19 11:05:00,81.7,74.6,29.96,North,0,0.0,0.0,79,0.00,,,0.00,WUHU216HW,2013-06-19 16:05:00,
2013-06-19 11:30:00,82.8,74.9,29.96,North,0,0.0,0.0,77,0.00,,,0.00,WUHU216HW,2013-06-19 16:30:00,
2013-06-19 11:35:00,82.8,74.9,29.96,North,0,0.0,0.0,77,0.00,,,0.00,WUHU216HW,2013-06-19 16:35:00,
2013-06-19 12:00:00,83.7,74.9,29.96,North,0,0.0,0.0,75,0.00,,,0.00,WUHU216HW,2013-06-19 17:00:00,
2013-06-19 12:05:00,83.7,74.9,29.96,North,0,0.0,0.0,75,0.00,,,0.00,WUHU216HW,2013-06-19 17:05:00,
2013-06-19 12:30:00,84.6,75.4,29.97,North,0,0.0,0.0,74,0.00,,,0.00,WUHU216HW,2013-06-19 17:30:00,
2013-06-19 12:35:00,84.6,75.4,29.97,North,0,0.0,0.0,74,0.00,,,0.00,WUHU216HW,2013-06-19 17:35:00,
2013-06-19 13:00:00,85.3,74.9,29.96,North,0,0.0,0.0,71,0.00,,,0.00,WUHU216HW,2013-06-19 18:00:00,
2013-06-19 13:05:00,85.3,74.9,29.96,North,0,0.0,0.0,71,0.00,,,0.00,WUHU216HW,2013-06-19 18:05:00,
2013-06-19 13:30:00,86.8,75.0,29.95,North,0,0.0,0.0,68,0.00,,,0.00,WUHU216HW,2013-06-19 18:30:00,
2013-06-19 13:35:00,86.8,75.0,29.95,North,0,0.0,0.0,68,0.00,,,0.00,WUHU216HW,2013-06-19 18:35:00,
2013-06-19 14:00:00,87.8,75.1,29.95,North,0,0.0,0.0,66,0.00,,,0.00,WUHU216HW,2013-06-19 19:00:00,
2013-06-19 14:05:00,87.8,75.1,29.95,North,0,0.0,0.0,66,0.00,,,0.00,WUHU216HW,2013-06-19 19:05:00,
2013-06-19 14:30:00,89.8,73.6,29.94,North,0,0.0,0.0,59,0.00,,,0.00,WUHU216HW,2013-06-19 19:30:00,
2013-06-19 14:35:00,89.8,73.6,29.94,North,0,0.0,0.0,59,0.00,,,0.00,WUHU216HW,2013-06-19 19:35:00,
2013-06-19 15:00:00,89.6,74.0,29.92,North,0,0.0,0.0,60,0.00,,,0.00,WUHU216HW,2013-06-19 20:00:00,
2013-06-19 15:05:00,89.6,74.0,29.92,North,0,0.0,0.0,60,0.00,,,0.00,WUHU216HW,2013-06-19 20:05:00,
2013-06-19 15:30:00,90.5,73.2,29.91,North,0,0.0,0.0,57,0.00,,,0.00,WUHU216HW,2013-06-19 20:30:00,
2013-06-19 15:35:00,90.5,73.2,29.91,North,0,0.0,0.0,57,0.00,,,0.00,WUHU216HW,2013-06-19 20:35:00,
2013-06-19 16:00:00,90.2,72.3,29.91,North,0,0.0,0.0,56,0.00,,,0.00,WUHU216HW,2013-06-19 21:00:00,
2013-06-19 16:05:00,90.2,72.3,29.91,North,0,0.0,0.0,56,0.00,,,0.00,WUHU216HW,2013-06-19 21:05:00,
2013-06-19 16:30:00,90.0,73.3,29.90,North,0,0.0,0.0,58,0.00,,,0.00,WUHU216HW,2013-06-19 21:30:00,
2013-06-19 16:35:00,90.0,73.3,29.90,North,0,0.0,0.0,58,0.00,,,0.00,WUHU216HW,2013-06-19 21:35:00,
2013-06-19 17:00:00,88.6,73.0,29.91,North,0,0.0,0.0,60,0.00,,,0.00,WUHU216HW,2013-06-19 22:00:00,
2013-06-19 17:05:00,88.6,73.0,29.91,North,0,0.0,0.0,60,0.00,,,0.00,WUHU216HW,2013-06-19 22:05:00,
2013-06-19 17:30:00,87.3,71.8,29.91,North,0,0.0,0.0,60,0.00,,,0.00,WUHU216HW,2013-06-19 22:30:00,
2013-06-19 17:35:00,87.3,71.8,29.91,North,0,0.0,0.0,60,0.00,,,0.00,WUHU216HW,2013-06-19 22:35:00,
2013-06-19 18:00:00,86.0,70.0,29.90,North,0,0.0,0.0,59,0.00,,,0.00,WUHU216HW,2013-06-19 23:00:00,
2013-06-19 18:05:00,86.0,70.0,29.90,North,0,0.0,0.0,59,0.00,,,0.00,WUHU216HW,2013-06-19 23:05:00,
2013-06-19 18:30:00,84.6,72.0,29.89,North,0,0.0,0.0,66,0.00,,,0.00,WUHU216HW,2013-06-19 23:30:00,
2013-06-19 18:35:00,84.6,72.0,29.89,North,0,0.0,0.0,66,0.00,,,0.00,WUHU216HW,2013-06-19 23:35:00,
2013-06-19 19:00:00,84.1,72.4,29.89,North,0,0.0,0.0,68,0.00,,,0.00,WUHU216HW,2013-06-20 00:00:00,
2013-06-19 19:05:00,84.1,72.4,29.89,North,0,0.0,0.0,68,0.00,,,0.00,WUHU216HW,2013-06-20 00:05:00,
2013-06-19 19:30:00,83.7,72.0,29.87,North,0,0.0,0.0,68,0.00,,,0.00,WUHU216HW,2013-06-20 00:30:00,
2013-06-19 19:35:00,83.7,72.0,29.87,North,0,0.0,0.0,68,0.00,,,0.00,WUHU216HW,2013-06-20 00:35:00,
2013-06-19 20:00:00,81.7,69.2,29.88,North,0,0.0,0.0,66,0.00,,,0.00,WUHU216HW,2013-06-20 01:00:00,
2013-06-19 20:05:00,81.7,69.2,29.88,North,0,0.0,0.0,66,0.00,,,0.00,WUHU216HW,2013-06-20 01:05:00,
2013-06-19 20:30:00,80.8,68.4,29.89,North,0,0.0,0.0,66,0.00,,,0.00,WUHU216HW,2013-06-20 01:30:00,
2013-06-19 20:35:00,80.8,68.4,29.89,North,0,0.0,0.0,66,0.00,,,0.00,WUHU216HW,2013-06-20 01:35:00,
2013-06-19 21:00:00,79.9,68.0,29.89,North,0,0.0,0.0,67,0.00,,,0.00,WUHU216HW,2013-06-20 02:00:00,
2013-06-19 21:05:00,79.9,68.0,29.89,North,0,0.0,0.0,67,0.00,,,0.00,WUHU216HW,2013-06-20 02:05:00,
2013-06-19 21:30:00,79.6,68.5,29.89,North,0,0.0,0.0,69,0.00,,,0.00,WUHU216HW,2013-06-20 02:30:00,
2013-06-19 21:35:00,79.6,68.5,29.89,North,0,0.0,0.0,69,0.00,,,0.00,WUHU216HW,2013-06-20 02:35:00,
2013-06-19 22:00:00,79.4,68.8,29.91,North,0,0.0,0.0,70,0.00,,,0.00,WUHU216HW,2013-06-20 03:00:00,
2013-06-19 22:05:00,79.4,68.8,29.91,North,0,0.0,0.0,70,0.00,,,0.00,WUHU216HW,2013-06-20 03:05:00,
2013-06-19 22:30:00,79.4,69.1,29.93,North,0,0.0,0.0,71,0.00,,,0.00,WUHU216HW,2013-06-20 03:30:00,
2013-06-19 22:35:00,79.4,69.1,29.93,North,0,0.0,0.0,71,0.00,,,0.00,WUHU216HW,2013-06-20 03:35:00,
2013-06-19 23:00:00,78.7,68.9,29.94,North,0,0.0,0.0,72,0.00,,,0.00,WUHU216HW,2013-06-20 04:00:00,
2013-06-19 23:01:00,78.7,68.9,29.94,North,0,0.0,0.0,72,0.00,,,0.00,WUHU216HW,2013-06-20 04:01:00,
2013-06-19 23:06:00,78.7,68.9,29.94,North,0,0.0,0.0,72,0.00,,,0.00,WUHU216HW,2013-06-20 04:06:00,
2013-06-19 23:30:00,78.5,69.0,29.93,North,0,0.0,0.0,73,0.00,,,0.00,WUHU216HW,2013-06-20 04:30:00,
2013-06-19 23:35:00,78.5,69.0,29.93,North,0,0.0,0.0,73,0.00,,,0.00,WUHU216HW,2013-06-20 04:35:00,